63.2°F
Current conditions from King Hill
Updated every 5 minutes
 
  Sunday September 21, 2014

Station Historical Data
Daily Summary for May 6, 2012 Units:  Both    English   Metric
« Previous Day
Next Day »
Daily Weekly Monthly Yearly Custom
  High: Low: Average:
Temperature: 63.0 °F /  17.2 °C 34.2 °F /  1.2 °C 48.6 °F /  9.2 °C
Dew Point: 41.6 °F /  5.3 °C 25.9 °F /  -3.4 °C 32.9 °F /  0.5 °C
Humidity: 86% 29% 58%
Wind Speed: 11.0mph /  17.7km/h - 3mph /  4.8km/h
Wind Gust: 17.0mph /  27.4km/h - -
Wind- - West
Pressure: 30.13 in /  1020.2 hPa 30.06 in /  1017.8 hPa -
Precipitation: 0.00 in /  0 mm    
Historical Graphs
 
 
Tabular Data for May 6, 2012
Time Temperature Dew Point Pressure Wind Wind Speed Wind Gust Humidity Daily Rainfall
00:04 41.8 °F /  5.4 °C 34.1 °F /  1.2 °C 30.09in /  1018.8hPa Calm     74% 0.00in /  0mm
00:09 41.5 °F /  5.3 °C 34.2 °F /  1.2 °C 30.09in /  1018.8hPa Calm     75% 0.00in /  0mm
00:14 41.3 °F /  5.2 °C 34.0 °F /  1.1 °C 30.09in /  1018.8hPa Calm     75% 0.00in /  0mm
00:19 40.5 °F /  4.7 °C 33.2 °F /  0.7 °C 30.09in /  1018.8hPa Calm     75% 0.00in /  0mm
00:24 39.8 °F /  4.3 °C 33.2 °F /  0.7 °C 30.09in /  1018.8hPa Calm     77% 0.00in /  0mm
00:29 39.5 °F /  4.2 °C 33.2 °F /  0.7 °C 30.09in /  1018.8hPa Calm     78% 0.00in /  0mm
00:34 40.4 °F /  4.7 °C 34.1 °F /  1.2 °C 30.09in /  1018.8hPa Calm   1.0mph /  1.6km/h 78% 0.00in /  0mm
00:39 41.1 °F /  5.1 °C 34.4 °F /  1.3 °C 30.09in /  1018.8hPa Calm   1.0mph /  1.6km/h 77% 0.00in /  0mm
00:44 41.2 °F /  5.1 °C 34.5 °F /  1.4 °C 30.09in /  1018.8hPa Calm     77% 0.00in /  0mm
00:49 41.3 °F /  5.2 °C 34.6 °F /  1.4 °C 30.09in /  1018.8hPa Calm     77% 0.00in /  0mm
00:54 41.3 °F /  5.2 °C 34.6 °F /  1.4 °C 30.10in /  1019.2hPa Calm     77% 0.00in /  0mm
00:59 40.6 °F /  4.8 °C 33.6 °F /  0.9 °C 30.09in /  1018.8hPa Calm     76% 0.00in /  0mm
01:05 39.7 °F /  4.3 °C 32.8 °F /  0.4 °C 30.09in /  1018.8hPa Calm     76% 0.00in /  0mm
01:10 39.3 °F /  4.1 °C 33.0 °F /  0.6 °C 30.09in /  1018.8hPa Calm     78% 0.00in /  0mm
01:15 39.4 °F /  4.1 °C 33.7 °F /  0.9 °C 30.09in /  1018.8hPa Calm     80% 0.00in /  0mm
01:20 38.7 °F /  3.7 °C 32.8 °F /  0.4 °C 30.09in /  1018.8hPa Calm     79% 0.00in /  0mm
01:25 38.2 °F /  3.4 °C 32.6 °F /  0.3 °C 30.09in /  1018.8hPa Calm     80% 0.00in /  0mm
01:30 38.2 °F /  3.4 °C 32.9 °F /  0.5 °C 30.09in /  1018.8hPa Calm   1.0mph /  1.6km/h 81% 0.00in /  0mm
01:35 38.4 °F /  3.6 °C 32.8 °F /  0.4 °C 30.08in /  1018.5hPa Calm   1.0mph /  1.6km/h 80% 0.00in /  0mm
01:40 38.4 °F /  3.6 °C 32.8 °F /  0.4 °C 30.08in /  1018.5hPa Calm     80% 0.00in /  0mm
01:45 38.3 °F /  3.5 °C 32.7 °F /  0.4 °C 30.08in /  1018.5hPa Calm     80% 0.00in /  0mm
01:50 38.2 °F /  3.4 °C 32.6 °F /  0.3 °C 30.08in /  1018.5hPa Calm     80% 0.00in /  0mm
01:55 37.7 °F /  3.2 °C 32.1 °F /  0.1 °C 30.08in /  1018.5hPa Calm     80% 0.00in /  0mm
02:00 37.7 °F /  3.2 °C 32.4 °F /  0.2 °C 30.08in /  1018.5hPa Calm     81% 0.00in /  0mm
02:05 37.5 °F /  3.1 °C 32.2 °F /  0.1 °C 30.08in /  1018.5hPa Calm     81% 0.00in /  0mm
02:10 37.1 °F /  2.8 °C 31.8 °F /  -0.1 °C 30.07in /  1018.2hPa Calm     81% 0.00in /  0mm
02:15 36.8 °F /  2.7 °C 31.8 °F /  -0.1 °C 30.07in /  1018.2hPa Calm     82% 0.00in /  0mm
02:20 36.9 °F /  2.7 °C 32.5 °F /  0.3 °C 30.07in /  1018.2hPa Calm     84% 0.00in /  0mm
02:25 37.4 °F /  3 °C 33.0 °F /  0.6 °C 30.07in /  1018.2hPa Calm     84% 0.00in /  0mm
02:30 37.2 °F /  2.9 °C 32.5 °F /  0.3 °C 30.07in /  1018.2hPa Calm     83% 0.00in /  0mm
02:40 36.9 °F /  2.7 °C 32.2 °F /  0.1 °C 30.06in /  1017.8hPa Calm     83% 0.00in /  0mm
02:45 36.4 °F /  2.4 °C 31.7 °F /  -0.2 °C 30.06in /  1017.8hPa Calm     83% 0.00in /  0mm
02:50 36.1 °F /  2.3 °C 31.4 °F /  -0.3 °C 30.07in /  1018.2hPa Calm     83% 0.00in /  0mm
03:00 35.3 °F /  1.8 °C 31.0 °F /  -0.6 °C 30.07in /  1018.2hPa Calm     84% 0.00in /  0mm
03:05 34.9 °F /  1.6 °C 30.6 °F /  -0.8 °C 30.07in /  1018.2hPa Calm     84% 0.00in /  0mm
03:10 34.4 °F /  1.3 °C 30.1 °F /  -1.1 °C 30.07in /  1018.2hPa Calm     84% 0.00in /  0mm
03:15 34.4 °F /  1.3 °C 30.1 °F /  -1.1 °C 30.07in /  1018.2hPa Calm     84% 0.00in /  0mm
03:20 34.2 °F /  1.2 °C 30.2 °F /  -1 °C 30.07in /  1018.2hPa Calm     85% 0.00in /  0mm
03:30 34.4 °F /  1.3 °C 30.4 °F /  -0.9 °C 30.07in /  1018.2hPa Calm   3.0mph /  4.8km/h 85% 0.00in /  0mm
03:35 34.5 °F /  1.4 °C 30.7 °F /  -0.7 °C 30.07in /  1018.2hPa Calm   3.0mph /  4.8km/h 86% 0.00in /  0mm
03:40 35.4 °F /  1.9 °C 31.3 °F /  -0.4 °C 30.08in /  1018.5hPa Calm     85% 0.00in /  0mm
03:45 35.8 °F /  2.1 °C 31.4 °F /  -0.3 °C 30.08in /  1018.5hPa Calm     84% 0.00in /  0mm
03:50 36.2 °F /  2.3 °C 31.2 °F /  -0.4 °C 30.08in /  1018.5hPa Calm     82% 0.00in /  0mm
03:55 36.7 °F /  2.6 °C 31.7 °F /  -0.2 °C 30.08in /  1018.5hPa Calm     82% 0.00in /  0mm
04:00 37.0 °F /  2.8 °C 31.4 °F /  -0.3 °C 30.08in /  1018.5hPa Calm     80% 0.00in /  0mm
04:05 36.7 °F /  2.6 °C 30.8 °F /  -0.7 °C 30.08in /  1018.5hPa Calm     79% 0.00in /  0mm
04:10 37.0 °F /  2.8 °C 30.8 °F /  -0.7 °C 30.08in /  1018.5hPa Calm     78% 0.00in /  0mm
04:15 37.3 °F /  2.9 °C 31.1 °F /  -0.5 °C 30.08in /  1018.5hPa Calm     78% 0.00in /  0mm
04:20 37.4 °F /  3 °C 31.5 °F /  -0.3 °C 30.08in /  1018.5hPa Calm     79% 0.00in /  0mm
04:25 37.3 °F /  2.9 °C 31.1 °F /  -0.5 °C 30.08in /  1018.5hPa Calm     78% 0.00in /  0mm
04:30 37.0 °F /  2.8 °C 30.5 °F /  -0.8 °C 30.08in /  1018.5hPa Calm     77% 0.00in /  0mm
04:40 35.9 °F /  2.2 °C 29.4 °F /  -1.4 °C 30.08in /  1018.5hPa Calm     77% 0.00in /  0mm
04:50 34.8 °F /  1.6 °C 29.0 °F /  -1.7 °C 30.08in /  1018.5hPa Calm     79% 0.00in /  0mm
04:55 34.6 °F /  1.4 °C 29.1 °F /  -1.6 °C 30.08in /  1018.5hPa Calm     80% 0.00in /  0mm
05:00 34.7 °F /  1.5 °C 29.2 °F /  -1.6 °C 30.08in /  1018.5hPa Calm     80% 0.00in /  0mm
05:05 35.0 °F /  1.7 °C 29.5 °F /  -1.4 °C 30.08in /  1018.5hPa Calm     80% 0.00in /  0mm
05:10 35.0 °F /  1.7 °C 29.2 °F /  -1.6 °C 30.08in /  1018.5hPa Calm     79% 0.00in /  0mm
05:15 34.8 °F /  1.6 °C 29.0 °F /  -1.7 °C 30.08in /  1018.5hPa Calm     79% 0.00in /  0mm
05:20 34.9 °F /  1.6 °C 29.4 °F /  -1.4 °C 30.08in /  1018.5hPa Calm     80% 0.00in /  0mm
05:25 35.2 °F /  1.8 °C 29.3 °F /  -1.5 °C 30.08in /  1018.5hPa Calm     79% 0.00in /  0mm
05:30 35.6 °F /  2 °C 29.4 °F /  -1.4 °C 30.09in /  1018.8hPa Calm     78% 0.00in /  0mm
05:35 36.0 °F /  2.2 °C 30.1 °F /  -1.1 °C 30.08in /  1018.5hPa Calm     79% 0.00in /  0mm
05:40 36.4 °F /  2.4 °C 30.5 °F /  -0.8 °C 30.08in /  1018.5hPa Calm     79% 0.00in /  0mm
05:45 36.5 °F /  2.5 °C 30.3 °F /  -0.9 °C 30.08in /  1018.5hPa Calm     78% 0.00in /  0mm
05:50 36.2 °F /  2.3 °C 29.7 °F /  -1.3 °C 30.08in /  1018.5hPa Calm     77% 0.00in /  0mm
05:55 35.8 °F /  2.1 °C 29.3 °F /  -1.5 °C 30.08in /  1018.5hPa Calm     77% 0.00in /  0mm
06:00 35.5 °F /  1.9 °C 29.3 °F /  -1.5 °C 30.09in /  1018.8hPa Calm     78% 0.00in /  0mm
06:10 34.4 °F /  1.3 °C 28.9 °F /  -1.7 °C 30.09in /  1018.8hPa Calm     80% 0.00in /  0mm
06:15 34.4 °F /  1.3 °C 28.9 °F /  -1.7 °C 30.09in /  1018.8hPa Calm     80% 0.00in /  0mm
06:20 35.0 °F /  1.7 °C 29.8 °F /  -1.2 °C 30.09in /  1018.8hPa Calm     81% 0.00in /  0mm
06:30 36.2 °F /  2.3 °C 30.6 °F /  -0.8 °C 30.09in /  1018.8hPa Calm     80% 0.00in /  0mm
06:40 37.0 °F /  2.8 °C 31.7 °F /  -0.2 °C 30.09in /  1018.8hPa Calm     81% 0.00in /  0mm
06:45 37.0 °F /  2.8 °C 31.7 °F /  -0.2 °C 30.09in /  1018.8hPa Calm     81% 0.00in /  0mm
06:50 37.0 °F /  2.8 °C 31.7 °F /  -0.2 °C 30.10in /  1019.2hPa Calm     81% 0.00in /  0mm
06:55 37.0 °F /  2.8 °C 31.7 °F /  -0.2 °C 30.10in /  1019.2hPa Calm     81% 0.00in /  0mm
07:00 37.1 °F /  2.8 °C 31.8 °F /  -0.1 °C 30.09in /  1018.8hPa Calm     81% 0.00in /  0mm
07:05 37.4 °F /  3 °C 32.4 °F /  0.2 °C 30.10in /  1019.2hPa Calm     82% 0.00in /  0mm
07:10 37.8 °F /  3.2 °C 33.1 °F /  0.6 °C 30.10in /  1019.2hPa Calm     83% 0.00in /  0mm
07:15 38.2 °F /  3.4 °C 33.5 °F /  0.8 °C 30.10in /  1019.2hPa Calm     83% 0.00in /  0mm
07:20 38.6 °F /  3.7 °C 33.9 °F /  1.1 °C 30.10in /  1019.2hPa Calm     83% 0.00in /  0mm
07:25 39.2 °F /  4 °C 34.8 °F /  1.6 °C 30.10in /  1019.2hPa Calm     84% 0.00in /  0mm
07:30 40.1 °F /  4.5 °C 36.0 °F /  2.2 °C 30.10in /  1019.2hPa Calm     85% 0.00in /  0mm
07:40 42.4 °F /  5.8 °C 37.3 °F /  2.9 °C 30.11in /  1019.5hPa Calm     82% 0.00in /  0mm
07:45 43.5 °F /  6.4 °C 38.1 °F /  3.4 °C 30.11in /  1019.5hPa Calm     81% 0.00in /  0mm
07:50 44.2 °F /  6.8 °C 37.1 °F /  2.8 °C 30.11in /  1019.5hPa Calm     76% 0.00in /  0mm
07:55 44.7 °F /  7.1 °C 36.2 °F /  2.3 °C 30.11in /  1019.5hPa Calm     72% 0.00in /  0mm
08:00 45.0 °F /  7.2 °C 34.7 °F /  1.5 °C 30.11in /  1019.5hPa Calm     67% 0.00in /  0mm
08:05 45.2 °F /  7.3 °C 35.3 °F /  1.8 °C 30.11in /  1019.5hPa Calm     68% 0.00in /  0mm
08:10 45.5 °F /  7.5 °C 35.9 °F /  2.2 °C 30.11in /  1019.5hPa Calm     69% 0.00in /  0mm
08:15 45.9 °F /  7.7 °C 36.3 °F /  2.4 °C 30.11in /  1019.5hPa Calm     69% 0.00in /  0mm
08:20 46.5 °F /  8.1 °C 36.9 °F /  2.7 °C 30.11in /  1019.5hPa Calm     69% 0.00in /  0mm
08:25 47.0 °F /  8.3 °C 36.2 °F /  2.3 °C 30.11in /  1019.5hPa Calm   2.0mph /  3.2km/h 66% 0.00in /  0mm
08:30 47.6 °F /  8.7 °C 36.0 °F /  2.2 °C 30.10in /  1019.2hPa Calm   2.0mph /  3.2km/h 64% 0.00in /  0mm
08:35 48.3 °F /  9.1 °C 36.3 °F /  2.4 °C 30.11in /  1019.5hPa Calm   2.0mph /  3.2km/h 63% 0.00in /  0mm
08:40 49.0 °F /  9.4 °C 36.6 °F /  2.6 °C 30.11in /  1019.5hPa South 1.0mph /  1.6km/h 3.0mph /  4.8km/h 62% 0.00in /  0mm
08:45 49.5 °F /  9.7 °C 34.0 °F /  1.1 °C 30.11in /  1019.5hPa South 2.0mph /  3.2km/h 5.0mph /  8km/h 55% 0.00in /  0mm
08:50 49.8 °F /  9.9 °C 34.7 °F /  1.5 °C 30.11in /  1019.5hPa Calm   5.0mph /  8km/h 56% 0.00in /  0mm
08:55 50.3 °F /  10.2 °C 36.1 °F /  2.3 °C 30.11in /  1019.5hPa Calm   1.0mph /  1.6km/h 58% 0.00in /  0mm
08:59 50.6 °F /  10.3 °C 34.1 °F /  1.2 °C 30.11in /  1019.5hPa Calm   5.0mph /  8km/h 53% 0.00in /  0mm
09:05 50.9 °F /  10.5 °C 37.1 °F /  2.8 °C 30.11in /  1019.5hPa NNE 1.0mph /  1.6km/h 5.0mph /  8km/h 59% 0.00in /  0mm
09:09 51.0 °F /  10.6 °C 33.5 °F /  0.8 °C 30.11in /  1019.5hPa NNW 1.0mph /  1.6km/h 4.0mph /  6.4km/h 51% 0.00in /  0mm
09:15 50.9 °F /  10.5 °C 33.9 °F /  1.1 °C 30.11in /  1019.5hPa Calm   4.0mph /  6.4km/h 52% 0.00in /  0mm
09:20 50.8 °F /  10.4 °C 33.8 °F /  1 °C 30.12in /  1019.9hPa North 2.0mph /  3.2km/h 5.0mph /  8km/h 52% 0.00in /  0mm
09:25 50.7 °F /  10.4 °C 34.2 °F /  1.2 °C 30.12in /  1019.9hPa Calm   6.0mph /  9.7km/h 53% 0.00in /  0mm
09:30 50.9 °F /  10.5 °C 34.4 °F /  1.3 °C 30.11in /  1019.5hPa NNW 1.0mph /  1.6km/h 7.0mph /  11.3km/h 53% 0.00in /  0mm
09:40 51.7 °F /  10.9 °C 37.4 °F /  3 °C 30.11in /  1019.5hPa NW 1.0mph /  1.6km/h 6.0mph /  9.7km/h 58% 0.00in /  0mm
09:45 51.3 °F /  10.7 °C 36.1 °F /  2.3 °C 30.12in /  1019.9hPa Calm   6.0mph /  9.7km/h 56% 0.00in /  0mm
09:50 51.0 °F /  10.6 °C 36.3 °F /  2.4 °C 30.12in /  1019.9hPa Calm   4.0mph /  6.4km/h 57% 0.00in /  0mm
09:55 51.5 °F /  10.8 °C 36.8 °F /  2.7 °C 30.13in /  1020.2hPa NW 1.0mph /  1.6km/h 6.0mph /  9.7km/h 57% 0.00in /  0mm
10:00 52.1 °F /  11.2 °C 36.0 °F /  2.2 °C 30.13in /  1020.2hPa NW 2.0mph /  3.2km/h 6.0mph /  9.7km/h 54% 0.00in /  0mm
10:05 52.0 °F /  11.1 °C 37.2 °F /  2.9 °C 30.12in /  1019.9hPa WNW 1.0mph /  1.6km/h 5.0mph /  8km/h 57% 0.00in /  0mm
10:09 52.1 °F /  11.2 °C 38.6 °F /  3.7 °C 30.13in /  1020.2hPa Calm   5.0mph /  8km/h 60% 0.00in /  0mm
10:15 52.3 °F /  11.3 °C 37.5 °F /  3.1 °C 30.13in /  1020.2hPa WNW 2.0mph /  3.2km/h 6.0mph /  9.7km/h 57% 0.00in /  0mm
10:20 52.1 °F /  11.2 °C 37.8 °F /  3.2 °C 30.12in /  1019.9hPa WNW 1.0mph /  1.6km/h 6.0mph /  9.7km/h 58% 0.00in /  0mm
10:30 52.5 °F /  11.4 °C 36.8 °F /  2.7 °C 30.13in /  1020.2hPa WNW 4.0mph /  6.4km/h 7.0mph /  11.3km/h 55% 0.00in /  0mm
10:35 52.5 °F /  11.4 °C 37.7 °F /  3.2 °C 30.12in /  1019.9hPa West 2.0mph /  3.2km/h 7.0mph /  11.3km/h 57% 0.00in /  0mm
10:45 53.0 °F /  11.7 °C 36.3 °F /  2.4 °C 30.12in /  1019.9hPa NW 4.0mph /  6.4km/h 8.0mph /  12.9km/h 53% 0.00in /  0mm
10:50 53.5 °F /  11.9 °C 37.7 °F /  3.2 °C 30.12in /  1019.9hPa WNW 7.0mph /  11.3km/h 9.0mph /  14.5km/h 55% 0.00in /  0mm
10:55 53.8 °F /  12.1 °C 39.8 °F /  4.3 °C 30.12in /  1019.9hPa NW 1.0mph /  1.6km/h 9.0mph /  14.5km/h 59% 0.00in /  0mm
11:00 53.9 °F /  12.2 °C 38.6 °F /  3.7 °C 30.12in /  1019.9hPa NW 1.0mph /  1.6km/h 8.0mph /  12.9km/h 56% 0.00in /  0mm
11:05 54.3 °F /  12.4 °C 38.5 °F /  3.6 °C 30.12in /  1019.9hPa Calm   7.0mph /  11.3km/h 55% 0.00in /  0mm
11:10 55.3 °F /  12.9 °C 39.4 °F /  4.1 °C 30.12in /  1019.9hPa NW 4.0mph /  6.4km/h 8.0mph /  12.9km/h 55% 0.00in /  0mm
11:15 56.0 °F /  13.3 °C 39.1 °F /  3.9 °C 30.12in /  1019.9hPa NW 2.0mph /  3.2km/h 8.0mph /  12.9km/h 53% 0.00in /  0mm
11:20 55.7 °F /  13.2 °C 39.3 °F /  4.1 °C 30.12in /  1019.9hPa NW 3.0mph /  4.8km/h 8.0mph /  12.9km/h 54% 0.00in /  0mm
11:25 56.4 °F /  13.6 °C 40.9 °F /  4.9 °C 30.11in /  1019.5hPa North 1.0mph /  1.6km/h 8.0mph /  12.9km/h 56% 0.00in /  0mm
11:34 57.8 °F /  14.3 °C 40.8 °F /  4.9 °C 30.11in /  1019.5hPa Calm   8.0mph /  12.9km/h 53% 0.00in /  0mm
11:40 58.5 °F /  14.7 °C 40.9 °F /  4.9 °C 30.11in /  1019.5hPa North 1.0mph /  1.6km/h 8.0mph /  12.9km/h 52% 0.00in /  0mm
11:45 58.9 °F /  14.9 °C 39.8 °F /  4.3 °C 30.11in /  1019.5hPa NW 1.0mph /  1.6km/h 9.0mph /  14.5km/h 49% 0.00in /  0mm
11:55 59.0 °F /  15 °C 40.9 °F /  4.9 °C 30.11in /  1019.5hPa NW 3.0mph /  4.8km/h 9.0mph /  14.5km/h 51% 0.00in /  0mm
12:05 59.3 °F /  15.2 °C 40.2 °F /  4.6 °C 30.10in /  1019.2hPa North 1.0mph /  1.6km/h 10.0mph /  16.1km/h 49% 0.00in /  0mm
12:10 59.3 °F /  15.2 °C 40.7 °F /  4.8 °C 30.10in /  1019.2hPa NW 4.0mph /  6.4km/h 10.0mph /  16.1km/h 50% 0.00in /  0mm
12:15 59.0 °F /  15 °C 41.4 °F /  5.2 °C 30.10in /  1019.2hPa NW 2.0mph /  3.2km/h 10.0mph /  16.1km/h 52% 0.00in /  0mm
12:25 59.7 °F /  15.4 °C 41.6 °F /  5.3 °C 30.10in /  1019.2hPa Calm   10.0mph /  16.1km/h 51% 0.00in /  0mm
12:30 60.2 °F /  15.7 °C 41.0 °F /  5 °C 30.10in /  1019.2hPa NW 1.0mph /  1.6km/h 11.0mph /  17.7km/h 49% 0.00in /  0mm
12:35 60.5 °F /  15.8 °C 40.2 °F /  4.6 °C 30.10in /  1019.2hPa NNE 2.0mph /  3.2km/h 11.0mph /  17.7km/h 47% 0.00in /  0mm
12:40 60.7 °F /  15.9 °C 39.8 °F /  4.3 °C 30.10in /  1019.2hPa NW 1.0mph /  1.6km/h 11.0mph /  17.7km/h 46% 0.00in /  0mm
12:45 60.1 °F /  15.6 °C 39.3 °F /  4.1 °C 30.10in /  1019.2hPa NW 6.0mph /  9.7km/h 11.0mph /  17.7km/h 46% 0.00in /  0mm
12:50 60.2 °F /  15.7 °C 40.4 °F /  4.7 °C 30.09in /  1018.8hPa NNW 2.0mph /  3.2km/h 14.0mph /  22.5km/h 48% 0.00in /  0mm
12:55 60.6 °F /  15.9 °C 39.7 °F /  4.3 °C 30.10in /  1019.2hPa NNW 3.0mph /  4.8km/h 14.0mph /  22.5km/h 46% 0.00in /  0mm
13:00 60.6 °F /  15.9 °C 41.3 °F /  5.2 °C 30.10in /  1019.2hPa NW 6.0mph /  9.7km/h 12.0mph /  19.3km/h 49% 0.00in /  0mm
13:05 60.7 °F /  15.9 °C 39.2 °F /  4 °C 30.09in /  1018.8hPa NW 3.0mph /  4.8km/h 12.0mph /  19.3km/h 45% 0.00in /  0mm
13:10 60.8 °F /  16 °C 39.9 °F /  4.4 °C 30.09in /  1018.8hPa NW 3.0mph /  4.8km/h 14.0mph /  22.5km/h 46% 0.00in /  0mm
13:15 60.3 °F /  15.7 °C 38.3 °F /  3.5 °C 30.09in /  1018.8hPa NW 5.0mph /  8km/h 14.0mph /  22.5km/h 44% 0.00in /  0mm
13:20 60.8 °F /  16 °C 38.2 °F /  3.4 °C 30.09in /  1018.8hPa NNE 5.0mph /  8km/h 12.0mph /  19.3km/h 43% 0.00in /  0mm
13:25 60.7 °F /  15.9 °C 37.5 °F /  3.1 °C 30.09in /  1018.8hPa NNW 5.0mph /  8km/h 12.0mph /  19.3km/h 42% 0.00in /  0mm
13:35 61.7 °F /  16.5 °C 38.4 °F /  3.6 °C 30.09in /  1018.8hPa NNW 2.0mph /  3.2km/h 14.0mph /  22.5km/h 42% 0.00in /  0mm
13:45 61.2 °F /  16.2 °C 37.3 °F /  2.9 °C 30.08in /  1018.5hPa NNW 4.0mph /  6.4km/h 13.0mph /  20.9km/h 41% 0.00in /  0mm
13:50 61.6 °F /  16.4 °C 36.4 °F /  2.4 °C 30.08in /  1018.5hPa NW 4.0mph /  6.4km/h 11.0mph /  17.7km/h 39% 0.00in /  0mm
13:55 61.9 °F /  16.6 °C 35.4 °F /  1.9 °C 30.08in /  1018.5hPa North 4.0mph /  6.4km/h 12.0mph /  19.3km/h 37% 0.00in /  0mm
14:05 62.5 °F /  16.9 °C 34.5 °F /  1.4 °C 30.08in /  1018.5hPa NNE 1.0mph /  1.6km/h 10.0mph /  16.1km/h 35% 0.00in /  0mm
14:15 62.7 °F /  17.1 °C 33.2 °F /  0.7 °C 30.07in /  1018.2hPa NNE 1.0mph /  1.6km/h 9.0mph /  14.5km/h 33% 0.00in /  0mm
14:20 62.2 °F /  16.8 °C 32.8 °F /  0.4 °C 30.07in /  1018.2hPa North 3.0mph /  4.8km/h 9.0mph /  14.5km/h 33% 0.00in /  0mm
14:25 62.5 °F /  16.9 °C 34.5 °F /  1.4 °C 30.07in /  1018.2hPa NNW 1.0mph /  1.6km/h 9.0mph /  14.5km/h 35% 0.00in /  0mm
14:30 62.3 °F /  16.8 °C 32.1 °F /  0.1 °C 30.07in /  1018.2hPa Calm   8.0mph /  12.9km/h 32% 0.00in /  0mm
14:35 62.0 °F /  16.7 °C 31.8 °F /  -0.1 °C 30.07in /  1018.2hPa NNE 4.0mph /  6.4km/h 10.0mph /  16.1km/h 32% 0.00in /  0mm
14:40 62.1 °F /  16.7 °C 31.9 °F /  -0.1 °C 30.07in /  1018.2hPa NNW 3.0mph /  4.8km/h 10.0mph /  16.1km/h 32% 0.00in /  0mm
14:45 62.6 °F /  17 °C 33.9 °F /  1.1 °C 30.07in /  1018.2hPa North 1.0mph /  1.6km/h 9.0mph /  14.5km/h 34% 0.00in /  0mm
14:50 63.0 °F /  17.2 °C 34.9 °F /  1.6 °C 30.07in /  1018.2hPa North 4.0mph /  6.4km/h 9.0mph /  14.5km/h 35% 0.00in /  0mm
15:00 62.0 °F /  16.7 °C 34.8 °F /  1.6 °C 30.07in /  1018.2hPa NNW 5.0mph /  8km/h 16.0mph /  25.7km/h 36% 0.00in /  0mm
15:05 61.9 °F /  16.6 °C 34.7 °F /  1.5 °C 30.07in /  1018.2hPa WNW 7.0mph /  11.3km/h 16.0mph /  25.7km/h 36% 0.00in /  0mm
15:10 62.4 °F /  16.9 °C 35.1 °F /  1.7 °C 30.07in /  1018.2hPa NNW 5.0mph /  8km/h 16.0mph /  25.7km/h 36% 0.00in /  0mm
15:15 62.2 °F /  16.8 °C 33.5 °F /  0.8 °C 30.07in /  1018.2hPa NW 11.0mph /  17.7km/h 16.0mph /  25.7km/h 34% 0.00in /  0mm
15:20 61.1 °F /  16.2 °C 35.3 °F /  1.8 °C 30.07in /  1018.2hPa NNW 7.0mph /  11.3km/h 17.0mph /  27.4km/h 38% 0.00in /  0mm
15:30 61.6 °F /  16.4 °C 34.4 °F /  1.3 °C 30.08in /  1018.5hPa North 4.0mph /  6.4km/h 16.0mph /  25.7km/h 36% 0.00in /  0mm
15:40 62.2 °F /  16.8 °C 33.5 °F /  0.8 °C 30.08in /  1018.5hPa NW 9.0mph /  14.5km/h 15.0mph /  24.1km/h 34% 0.00in /  0mm
15:45 61.9 °F /  16.6 °C 33.2 °F /  0.7 °C 30.08in /  1018.5hPa NW 6.0mph /  9.7km/h 15.0mph /  24.1km/h 34% 0.00in /  0mm
15:55 62.5 °F /  16.9 °C 34.5 °F /  1.4 °C 30.08in /  1018.5hPa NNW 4.0mph /  6.4km/h 13.0mph /  20.9km/h 35% 0.00in /  0mm
16:05 62.1 °F /  16.7 °C 33.4 °F /  0.8 °C 30.08in /  1018.5hPa North 2.0mph /  3.2km/h 13.0mph /  20.9km/h 34% 0.00in /  0mm
16:10 62.7 °F /  17.1 °C 32.4 °F /  0.2 °C 30.08in /  1018.5hPa North 1.0mph /  1.6km/h 13.0mph /  20.9km/h 32% 0.00in /  0mm
16:15 62.7 °F /  17.1 °C 31.6 °F /  -0.2 °C 30.08in /  1018.5hPa NNW 2.0mph /  3.2km/h 13.0mph /  20.9km/h 31% 0.00in /  0mm
16:20 62.2 °F /  16.8 °C 31.2 °F /  -0.4 °C 30.08in /  1018.5hPa NNW 6.0mph /  9.7km/h 14.0mph /  22.5km/h 31% 0.00in /  0mm
16:25 62.2 °F /  16.8 °C 32.0 °F /  0 °C 30.08in /  1018.5hPa NNW 5.0mph /  8km/h 15.0mph /  24.1km/h 32% 0.00in /  0mm
16:30 62.1 °F /  16.7 °C 33.4 °F /  0.8 °C 30.08in /  1018.5hPa NNW 6.0mph /  9.7km/h 15.0mph /  24.1km/h 34% 0.00in /  0mm
16:35 62.0 °F /  16.7 °C 31.8 °F /  -0.1 °C 30.08in /  1018.5hPa North 2.0mph /  3.2km/h 14.0mph /  22.5km/h 32% 0.00in /  0mm
16:40 62.1 °F /  16.7 °C 32.7 °F /  0.4 °C 30.09in /  1018.8hPa NW 6.0mph /  9.7km/h 16.0mph /  25.7km/h 33% 0.00in /  0mm
16:45 62.3 °F /  16.8 °C 31.3 °F /  -0.4 °C 30.09in /  1018.8hPa NNW 4.0mph /  6.4km/h 16.0mph /  25.7km/h 31% 0.00in /  0mm
16:55 61.4 °F /  16.3 °C 30.5 °F /  -0.8 °C 30.09in /  1018.8hPa NNW 5.0mph /  8km/h 14.0mph /  22.5km/h 31% 0.00in /  0mm
17:00 61.4 °F /  16.3 °C 31.3 °F /  -0.4 °C 30.09in /  1018.8hPa NNW 3.0mph /  4.8km/h 14.0mph /  22.5km/h 32% 0.00in /  0mm
17:05 61.8 °F /  16.6 °C 30.9 °F /  -0.6 °C 30.09in /  1018.8hPa NNW 3.0mph /  4.8km/h 11.0mph /  17.7km/h 31% 0.00in /  0mm
17:10 62.4 °F /  16.9 °C 31.4 °F /  -0.3 °C 30.09in /  1018.8hPa NW 2.0mph /  3.2km/h 10.0mph /  16.1km/h 31% 0.00in /  0mm
17:20 62.6 °F /  17 °C 31.6 °F /  -0.2 °C 30.09in /  1018.8hPa Calm   9.0mph /  14.5km/h 31% 0.00in /  0mm
17:25 62.7 °F /  17.1 °C 30.0 °F /  -1.1 °C 30.09in /  1018.8hPa NW 2.0mph /  3.2km/h 8.0mph /  12.9km/h 29% 0.00in /  0mm
17:30 61.9 °F /  16.6 °C 30.1 °F /  -1.1 °C 30.09in /  1018.8hPa NW 1.0mph /  1.6km/h 11.0mph /  17.7km/h 30% 0.00in /  0mm
17:40 61.7 °F /  16.5 °C 30.8 °F /  -0.7 °C 30.10in /  1019.2hPa North 1.0mph /  1.6km/h 7.0mph /  11.3km/h 31% 0.00in /  0mm
17:45 61.5 °F /  16.4 °C 30.6 °F /  -0.8 °C 30.09in /  1018.8hPa NNW 2.0mph /  3.2km/h 8.0mph /  12.9km/h 31% 0.00in /  0mm
17:55 61.6 °F /  16.4 °C 31.5 °F /  -0.3 °C 30.10in /  1019.2hPa NW 2.0mph /  3.2km/h 6.0mph /  9.7km/h 32% 0.00in /  0mm
18:00 61.7 °F /  16.5 °C 29.1 °F /  -1.6 °C 30.09in /  1018.8hPa NW 2.0mph /  3.2km/h 8.0mph /  12.9km/h 29% 0.00in /  0mm
18:05 61.1 °F /  16.2 °C 28.6 °F /  -1.9 °C 30.09in /  1018.8hPa NW 2.0mph /  3.2km/h 9.0mph /  14.5km/h 29% 0.00in /  0mm
18:15 60.3 °F /  15.7 °C 30.3 °F /  -0.9 °C 30.09in /  1018.8hPa Calm   4.0mph /  6.4km/h 32% 0.00in /  0mm
18:20 59.9 °F /  15.5 °C 30.0 °F /  -1.1 °C 30.09in /  1018.8hPa Calm   4.0mph /  6.4km/h 32% 0.00in /  0mm
18:25 60.0 °F /  15.6 °C 30.1 °F /  -1.1 °C 30.08in /  1018.5hPa Calm   4.0mph /  6.4km/h 32% 0.00in /  0mm
18:30 59.7 °F /  15.4 °C 29.8 °F /  -1.2 °C 30.09in /  1018.8hPa Calm   6.0mph /  9.7km/h 32% 0.00in /  0mm
18:35 59.9 °F /  15.5 °C 31.5 °F /  -0.3 °C 30.08in /  1018.5hPa Calm   6.0mph /  9.7km/h 34% 0.00in /  0mm
18:40 60.3 °F /  15.7 °C 30.3 °F /  -0.9 °C 30.09in /  1018.8hPa NNW 1.0mph /  1.6km/h 5.0mph /  8km/h 32% 0.00in /  0mm
18:50 60.2 °F /  15.7 °C 29.5 °F /  -1.4 °C 30.08in /  1018.5hPa Calm   3.0mph /  4.8km/h 31% 0.00in /  0mm
18:55 60.0 °F /  15.6 °C 29.3 °F /  -1.5 °C 30.08in /  1018.5hPa Calm   4.0mph /  6.4km/h 31% 0.00in /  0mm
19:10 58.2 °F /  14.6 °C 30.7 °F /  -0.7 °C 30.08in /  1018.5hPa Calm   6.0mph /  9.7km/h 35% 0.00in /  0mm
19:15 57.2 °F /  14 °C 29.8 °F /  -1.2 °C 30.08in /  1018.5hPa Calm   6.0mph /  9.7km/h 35% 0.00in /  0mm
19:20 56.4 °F /  13.6 °C 29.8 °F /  -1.2 °C 30.09in /  1018.8hPa Calm   4.0mph /  6.4km/h 36% 0.00in /  0mm
19:25 55.6 °F /  13.1 °C 30.4 °F /  -0.9 °C 30.08in /  1018.5hPa Calm   4.0mph /  6.4km/h 38% 0.00in /  0mm
19:30 54.9 °F /  12.7 °C 31.6 °F /  -0.2 °C 30.09in /  1018.8hPa Calm     41% 0.00in /  0mm
19:35 54.1 °F /  12.3 °C 30.3 °F /  -0.9 °C 30.09in /  1018.8hPa Calm     40% 0.00in /  0mm
19:45 52.1 °F /  11.2 °C 31.4 °F /  -0.3 °C 30.09in /  1018.8hPa Calm     45% 0.00in /  0mm
19:50 51.1 °F /  10.6 °C 30.5 °F /  -0.8 °C 30.09in /  1018.8hPa Calm     45% 0.00in /  0mm
19:55 50.4 °F /  10.2 °C 29.9 °F /  -1.2 °C 30.09in /  1018.8hPa Calm     45% 0.00in /  0mm
20:05 49.7 °F /  9.8 °C 29.8 °F /  -1.2 °C 30.09in /  1018.8hPa Calm     46% 0.00in /  0mm
20:10 49.3 °F /  9.6 °C 30.4 °F /  -0.9 °C 30.09in /  1018.8hPa Calm     48% 0.00in /  0mm
20:15 49.0 °F /  9.4 °C 30.2 °F /  -1 °C 30.09in /  1018.8hPa Calm     48% 0.00in /  0mm
20:20 48.8 °F /  9.3 °C 30.0 °F /  -1.1 °C 30.09in /  1018.8hPa Calm     48% 0.00in /  0mm
20:25 48.6 °F /  9.2 °C 29.8 °F /  -1.2 °C 30.08in /  1018.5hPa Calm     48% 0.00in /  0mm
20:35 48.1 °F /  8.9 °C 29.3 °F /  -1.5 °C 30.09in /  1018.8hPa Calm     48% 0.00in /  0mm
20:40 47.9 °F /  8.8 °C 29.7 °F /  -1.3 °C 30.09in /  1018.8hPa Calm     49% 0.00in /  0mm
20:45 47.8 °F /  8.8 °C 30.1 °F /  -1.1 °C 30.09in /  1018.8hPa Calm     50% 0.00in /  0mm
20:50 47.8 °F /  8.8 °C 29.1 °F /  -1.6 °C 30.09in /  1018.8hPa Calm     48% 0.00in /  0mm
21:00 46.8 °F /  8.2 °C 28.1 °F /  -2.2 °C 30.09in /  1018.8hPa Calm     48% 0.00in /  0mm
21:05 46.9 °F /  8.3 °C 29.2 °F /  -1.6 °C 30.09in /  1018.8hPa Calm     50% 0.00in /  0mm
21:10 47.0 °F /  8.3 °C 28.8 °F /  -1.8 °C 30.09in /  1018.8hPa Calm     49% 0.00in /  0mm
21:15 46.9 °F /  8.3 °C 28.7 °F /  -1.8 °C 30.09in /  1018.8hPa Calm     49% 0.00in /  0mm
21:20 46.4 °F /  8 °C 27.8 °F /  -2.3 °C 30.09in /  1018.8hPa Calm     48% 0.00in /  0mm
21:25 46.5 °F /  8.1 °C 29.8 °F /  -1.2 °C 30.09in /  1018.8hPa Calm     52% 0.00in /  0mm
21:30 46.9 °F /  8.3 °C 29.2 °F /  -1.6 °C 30.09in /  1018.8hPa Calm     50% 0.00in /  0mm
21:35 47.0 °F /  8.3 °C 28.8 °F /  -1.8 °C 30.09in /  1018.8hPa Calm     49% 0.00in /  0mm
21:40 46.8 °F /  8.2 °C 31.0 °F /  -0.6 °C 30.09in /  1018.8hPa Calm     54% 0.00in /  0mm
21:50 45.4 °F /  7.4 °C 29.3 °F /  -1.5 °C 30.09in /  1018.8hPa Calm     53% 0.00in /  0mm
21:55 45.0 °F /  7.2 °C 28.0 °F /  -2.2 °C 30.09in /  1018.8hPa Calm     51% 0.00in /  0mm
22:00 45.2 °F /  7.3 °C 28.1 °F /  -2.2 °C 30.09in /  1018.8hPa Calm     51% 0.00in /  0mm
22:05 45.7 °F /  7.6 °C 29.1 °F /  -1.6 °C 30.09in /  1018.8hPa Calm     52% 0.00in /  0mm
22:10 46.0 °F /  7.8 °C 29.8 °F /  -1.2 °C 30.09in /  1018.8hPa Calm     53% 0.00in /  0mm
22:15 46.0 °F /  7.8 °C 28.9 °F /  -1.7 °C 30.09in /  1018.8hPa Calm     51% 0.00in /  0mm
22:20 45.8 °F /  7.7 °C 29.2 °F /  -1.6 °C 30.09in /  1018.8hPa Calm     52% 0.00in /  0mm
22:30 45.7 °F /  7.6 °C 27.6 °F /  -2.4 °C 30.08in /  1018.5hPa Calm     49% 0.00in /  0mm
22:35 45.8 °F /  7.7 °C 26.7 °F /  -2.9 °C 30.08in /  1018.5hPa Calm     47% 0.00in /  0mm
22:40 45.7 °F /  7.6 °C 27.1 °F /  -2.7 °C 30.08in /  1018.5hPa Calm     48% 0.00in /  0mm
22:45 45.9 °F /  7.7 °C 27.8 °F /  -2.3 °C 30.09in /  1018.8hPa Calm     49% 0.00in /  0mm
22:50 45.9 °F /  7.7 °C 29.7 °F /  -1.3 °C 30.08in /  1018.5hPa Calm     53% 0.00in /  0mm
23:00 45.5 °F /  7.5 °C 28.4 °F /  -2 °C 30.08in /  1018.5hPa Calm     51% 0.00in /  0mm
23:05 45.4 °F /  7.4 °C 28.3 °F /  -2.1 °C 30.09in /  1018.8hPa Calm     51% 0.00in /  0mm
23:10 44.8 °F /  7.1 °C 28.2 °F /  -2.1 °C 30.09in /  1018.8hPa Calm     52% 0.00in /  0mm
23:20 43.1 °F /  6.2 °C 26.2 °F /  -3.2 °C 30.08in /  1018.5hPa Calm     51% 0.00in /  0mm
23:25 42.9 °F /  6.1 °C 26.9 °F /  -2.8 °C 30.09in /  1018.8hPa Calm     53% 0.00in /  0mm
23:30 42.3 °F /  5.7 °C 26.8 °F /  -2.9 °C 30.09in /  1018.8hPa Calm     54% 0.00in /  0mm
23:35 41.8 °F /  5.4 °C 25.9 °F /  -3.4 °C 30.09in /  1018.8hPa Calm     53% 0.00in /  0mm
23:40 41.9 °F /  5.5 °C 27.8 °F /  -2.3 °C 30.09in /  1018.8hPa Calm     57% 0.00in /  0mm
23:50 43.4 °F /  6.3 °C 27.9 °F /  -2.3 °C 30.09in /  1018.8hPa Calm     54% 0.00in /  0mm
23:55 44.2 °F /  6.8 °C 28.2 °F /  -2.1 °C 30.09in /  1018.8hPa Calm     53% 0.00in /  0mm
Westford Weather
Compliments of Weather Underground

 
 
Current Radar Loop:

Copyright © WestfordWeather.net 2007-2014. All rights reserved.